Time;durP1;ratioP1;P1;durP2;ratioP2;P2;SDS_P1;SDS_P2;PMS_P1;PMS_P2;Temp;Humidity;BMP_temperature;BMP_pressure;BME280_temperature;BME280_humidity;BME280_pressure;Samples;Min_cycle;Max_cycle;Signal;HPM_P1;HPM_P2
2021/07/30 00:00:04;;;;;;;2.88;1.90;;;24.80;52.60;;;;;;5069369;28;20136;-48
2021/07/30 00:02:30;;;;;;;3.88;2.58;;;24.80;52.60;;;;;;5060221;28;20047;-48
2021/07/30 00:04:56;;;;;;;6.05;2.17;;;24.80;52.60;;;;;;5051744;28;20104;-49
2021/07/30 00:07:21;;;;;;;4.05;2.15;;;24.90;52.60;;;;;;5052224;28;20025;-45
2021/07/30 00:09:47;;;;;;;4.32;2.20;;;24.90;52.60;;;;;;5066495;28;20458;-46
2021/07/30 00:12:13;;;;;;;2.60;2.15;;;24.90;52.70;;;;;;5073799;28;20431;-45
2021/07/30 00:14:38;;;;;;;5.57;2.13;;;24.90;52.60;;;;;;5074091;28;20517;-50
2021/07/30 00:17:04;;;;;;;2.60;1.92;;;24.90;52.60;;;;;;5075279;28;20029;-46
2021/07/30 00:19:30;;;;;;;2.60;1.95;;;24.90;52.70;;;;;;5073883;28;20028;-50
2021/07/30 00:21:55;;;;;;;2.85;2.10;;;24.90;52.70;;;;;;5074768;28;20033;-46
2021/07/30 00:24:21;;;;;;;3.00;2.10;;;24.90;52.90;;;;;;5073727;28;20489;-45
2021/07/30 00:26:48;;;;;;;3.10;2.28;;;24.90;52.70;;;;;;5075059;28;20065;-46
2021/07/30 00:29:14;;;;;;;2.80;1.90;;;24.90;52.70;;;;;;5072200;28;20032;-48
2021/07/30 00:31:39;;;;;;;4.30;2.60;;;24.90;52.80;;;;;;5053936;28;20073;-45
2021/07/30 00:34:05;;;;;;;3.05;2.17;;;24.90;52.80;;;;;;5069211;28;20028;-45
2021/07/30 00:36:31;;;;;;;2.97;1.88;;;24.90;52.80;;;;;;5074356;28;20024;-47
2021/07/30 00:38:57;;;;;;;2.47;2.05;;;24.90;52.90;;;;;;5058368;28;20547;-45
2021/07/30 00:41:23;;;;;;;2.45;2.08;;;24.90;52.80;;;;;;5073737;28;20028;-47
2021/07/30 00:43:49;;;;;;;3.13;2.33;;;24.90;52.80;;;;;;5074468;28;20032;-49
2021/07/30 00:46:15;;;;;;;2.95;2.10;;;24.90;52.90;;;;;;5064865;28;20025;-45
2021/07/30 00:48:42;;;;;;;2.78;2.10;;;24.90;53.00;;;;;;5072808;28;20028;-45
2021/07/30 00:51:08;;;;;;;4.30;2.22;;;24.90;52.90;;;;;;5074306;28;20070;-45
2021/07/30 00:53:34;;;;;;;3.95;2.35;;;24.90;52.90;;;;;;5065908;28;20458;-45
2021/07/30 00:55:59;;;;;;;2.03;1.58;;;24.90;52.90;;;;;;5055741;28;20035;-45
2021/07/30 00:58:29;;;;;;;3.50;2.17;;;24.80;52.90;;;;;;5073412;28;20385;-45
2021/07/30 01:00:56;;;;;;;3.10;2.03;;;24.80;53.00;;;;;;5073871;28;20060;-45
2021/07/30 01:03:22;;;;;;;2.33;1.95;;;24.80;52.90;;;;;;5073658;28;20039;-46
2021/07/30 01:05:49;;;;;;;2.53;1.80;;;24.80;52.90;;;;;;5068854;28;20040;-45
2021/07/30 01:08:15;;;;;;;1.67;1.55;;;24.80;53.00;;;;;;5074151;28;20466;-44
2021/07/30 01:10:41;;;;;;;4.35;2.08;;;24.80;53.00;;;;;;5069716;28;20036;-45
2021/07/30 01:13:06;;;;;;;2.40;2.00;;;24.80;53.00;;;;;;5072497;28;20039;-44
2021/07/30 01:15:32;;;;;;;2.90;2.33;;;24.80;53.00;;;;;;5072255;28;20028;-44
2021/07/30 01:17:58;;;;;;;2.47;1.70;;;24.80;53.00;;;;;;5073537;28;20027;-45
2021/07/30 01:20:25;;;;;;;2.03;1.73;;;24.80;53.00;;;;;;5072894;28;20462;-45
2021/07/30 01:22:52;;;;;;;3.17;1.55;;;24.80;53.00;;;;;;5073790;28;20036;-45
2021/07/30 01:25:19;;;;;;;2.85;2.33;;;24.80;53.00;;;;;;5072227;28;20039;-53
2021/07/30 01:27:45;;;;;;;2.25;1.90;;;24.80;53.00;;;;;;5073310;28;20031;-46
2021/07/30 01:30:12;;;;;;;3.53;2.03;;;24.80;53.00;;;;;;5073862;28;20032;-46
2021/07/30 01:32:38;;;;;;;1.88;1.67;;;24.80;53.00;;;;;;5073410;28;20147;-47
2021/07/30 01:35:03;;;;;;;2.80;2.00;;;24.80;53.10;;;;;;5057618;28;20104;-45
2021/07/30 01:37:31;;;;;;;4.05;1.95;;;24.80;53.60;;;;;;5052708;28;20025;-45
2021/07/30 01:39:57;;;;;;;2.58;2.08;;;24.80;53.00;;;;;;5053687;28;20025;-46
2021/07/30 01:42:23;;;;;;;2.28;1.90;;;24.80;53.00;;;;;;5066309;28;20355;-53
2021/07/30 01:44:50;;;;;;;2.10;1.90;;;24.80;53.10;;;;;;5059410;28;20108;-46
2021/07/30 01:47:16;;;;;;;3.00;1.88;;;24.80;53.00;;;;;;5062441;28;20035;-46
2021/07/30 01:49:42;;;;;;;2.60;2.33;;;24.80;53.10;;;;;;5072860;28;20123;-46
2021/07/30 01:52:07;;;;;;;3.22;1.95;;;24.80;53.10;;;;;;5072106;28;20029;-45
2021/07/30 01:54:33;;;;;;;2.10;1.83;;;24.80;53.10;;;;;;5072083;28;20086;-45
2021/07/30 01:56:58;;;;;;;2.30;1.95;;;24.80;53.10;;;;;;5073508;28;20049;-45
2021/07/30 01:59:24;;;;;;;3.20;1.92;;;24.80;53.10;;;;;;5072042;28;20551;-46
2021/07/30 02:01:50;;;;;;;2.35;1.70;;;24.80;53.10;;;;;;5072363;28;20063;-45
2021/07/30 02:04:18;;;;;;;5.43;2.38;;;24.80;53.00;;;;;;5072590;28;20044;-45
2021/07/30 02:06:44;;;;;;;3.50;1.75;;;24.80;53.00;;;;;;5072602;28;20029;-45
2021/07/30 02:09:10;;;;;;;2.50;1.90;;;24.80;53.00;;;;;;5066649;28;20017;-45
2021/07/30 02:11:35;;;;;;;3.35;2.05;;;24.80;53.00;;;;;;5059236;28;20020;-45
2021/07/30 02:14:25;;;;;;;2.90;2.20;;;24.80;53.10;;;;;;5064778;28;20098;-45
2021/07/30 02:16:48;;;;;;;5.15;1.85;;;24.80;53.00;;;;;;5058415;28;20037;-45
2021/07/30 02:19:17;;;;;;;2.45;1.95;;;24.80;53.10;;;;;;5053527;28;20057;-45
2021/07/30 02:21:43;;;;;;;2.03;1.83;;;24.80;53.10;;;;;;5051991;28;20017;-54
2021/07/30 02:24:08;;;;;;;2.67;1.90;;;24.80;53.10;;;;;;5052730;28;20025;-45
2021/07/30 02:26:35;;;;;;;2.95;2.05;;;24.80;53.10;;;;;;5054257;28;20081;-46
2021/07/30 02:29:02;;;;;;;2.35;1.90;;;24.80;53.10;;;;;;5072724;28;20039;-45
2021/07/30 02:31:27;;;;;;;2.10;1.90;;;24.80;53.00;;;;;;5071512;28;20108;-46
2021/07/30 02:33:53;;;;;;;2.92;1.90;;;24.70;53.00;;;;;;5071919;28;20067;-45
2021/07/30 02:36:19;;;;;;;2.53;1.73;;;24.60;53.10;;;;;;5072627;28;20027;-49
2021/07/30 02:38:45;;;;;;;3.15;1.90;;;24.70;53.20;;;;;;5072185;28;20021;-45
2021/07/30 02:41:11;;;;;;;2.58;2.17;;;24.70;53.10;;;;;;5072306;28;20381;-45
2021/07/30 02:43:36;;;;;;;3.42;2.33;;;24.70;53.20;;;;;;5061788;28;20113;-46
2021/07/30 02:46:02;;;;;;;3.00;1.98;;;24.80;53.20;;;;;;5052374;28;20479;-45
2021/07/30 02:48:28;;;;;;;2.28;2.00;;;24.80;53.20;;;;;;5062774;28;20036;-45
2021/07/30 02:50:54;;;;;;;2.72;2.10;;;24.80;53.20;;;;;;5072733;28;20032;-46
2021/07/30 02:53:19;;;;;;;3.40;1.88;;;24.80;53.20;;;;;;5072004;28;20485;-45
2021/07/30 02:55:46;;;;;;;2.08;1.83;;;24.80;53.20;;;;;;5053572;28;20032;-46
2021/07/30 02:58:13;;;;;;;2.80;2.25;;;24.80;53.20;;;;;;5052111;28;20441;-46
2021/07/30 03:00:39;;;;;;;3.53;2.10;;;24.80;53.20;;;;;;5067132;28;20138;-45
2021/07/30 03:03:05;;;;;;;2.65;1.95;;;24.80;53.20;;;;;;5071659;28;20041;-45
2021/07/30 03:05:31;;;;;;;3.05;1.73;;;24.80;53.30;;;;;;5055456;28;20040;-48
2021/07/30 03:07:56;;;;;;;2.33;1.90;;;24.80;53.30;;;;;;5052955;28;20033;-52
2021/07/30 03:10:22;;;;;;;3.03;2.28;;;24.70;53.20;;;;;;5054954;28;20513;-53
2021/07/30 03:12:48;;;;;;;4.07;2.17;;;24.70;53.50;;;;;;5051429;28;20036;-46
2021/07/30 03:15:14;;;;;;;3.20;2.03;;;24.70;53.20;;;;;;5064680;28;20501;-45
2021/07/30 03:17:39;;;;;;;2.40;2.20;;;24.80;53.30;;;;;;5070314;28;20378;-50
2021/07/30 03:20:06;;;;;;;6.18;2.10;;;24.70;53.20;;;;;;5071718;28;20027;-46
2021/07/30 03:22:32;;;;;;;4.53;2.35;;;24.70;53.20;;;;;;5064377;28;20028;-47
2021/07/30 03:24:59;;;;;;;3.15;2.15;;;24.80;53.30;;;;;;5051926;28;20035;-46
2021/07/30 03:27:25;;;;;;;2.28;1.90;;;24.80;53.30;;;;;;5051280;28;20036;-55
2021/07/30 03:29:50;;;;;;;2.67;1.98;;;24.70;53.30;;;;;;5069162;28;20063;-48
2021/07/30 03:32:16;;;;;;;4.28;2.60;;;24.70;53.30;;;;;;5071598;28;20056;-46
2021/07/30 03:34:42;;;;;;;2.28;1.90;;;24.70;53.30;;;;;;5070375;28;20648;-47
2021/07/30 03:37:08;;;;;;;3.17;2.17;;;24.70;53.30;;;;;;5071442;28;20032;-46
2021/07/30 03:39:34;;;;;;;3.03;2.10;;;24.70;53.40;;;;;;5071009;28;20086;-46
2021/07/30 03:42:00;;;;;;;2.97;2.30;;;24.70;53.30;;;;;;5073089;28;20020;-50
2021/07/30 03:44:26;;;;;;;3.38;2.25;;;24.70;53.40;;;;;;5064754;28;20034;-54
2021/07/30 03:46:51;;;;;;;4.78;2.10;;;24.70;53.30;;;;;;5064086;28;20032;-48
2021/07/30 03:49:17;;;;;;;2.42;1.98;;;24.70;53.30;;;;;;5035599;28;20459;-48
2021/07/30 03:51:43;;;;;;;3.22;2.40;;;24.70;53.30;;;;;;5064471;28;20150;-46
2021/07/30 03:54:09;;;;;;;3.53;2.40;;;24.70;53.20;;;;;;5075236;28;20037;-46
2021/07/30 03:56:38;;;;;;;2.58;2.00;;;24.80;53.30;;;;;;5073206;28;20025;-45
2021/07/30 03:59:04;;;;;;;3.38;2.35;;;24.70;53.20;;;;;;5064902;28;20470;-45
2021/07/30 04:01:30;;;;;;;3.83;2.00;;;24.70;53.20;;;;;;5054866;28;20072;-48
2021/07/30 04:03:55;;;;;;;2.97;2.10;;;24.70;53.30;;;;;;5055027;28;20463;-47
2021/07/30 04:06:21;;;;;;;3.40;2.30;;;24.80;53.30;;;;;;5074764;28;20028;-45
2021/07/30 04:08:46;;;;;;;3.20;2.28;;;24.80;53.40;;;;;;5069746;28;20074;-45
2021/07/30 04:11:12;;;;;;;3.25;2.53;;;24.80;53.40;;;;;;5055550;28;20090;-45
2021/07/30 04:13:38;;;;;;;3.90;2.40;;;24.70;53.30;;;;;;5054496;28;20117;-47
2021/07/30 04:16:07;;;;;;;3.25;2.55;;;24.70;53.30;;;;;;5054014;28;20091;-45
2021/07/30 04:18:34;;;;;;;4.30;2.15;;;24.80;54.00;;;;;;5057594;28;20024;-45
2021/07/30 04:21:06;;;;;;;3.08;2.17;;;24.70;53.30;;;;;;5073920;28;20123;-45
2021/07/30 04:23:32;;;;;;;2.20;2.00;;;24.70;53.30;;;;;;5052966;28;20043;-46
2021/07/30 04:25:58;;;;;;;3.38;2.15;;;24.70;53.30;;;;;;5051769;28;20029;-45
2021/07/30 04:28:24;;;;;;;4.10;2.20;;;24.70;53.20;;;;;;5053377;28;20028;-54
2021/07/30 04:30:50;;;;;;;3.42;2.42;;;24.70;53.30;;;;;;5053385;28;20033;-45
2021/07/30 04:33:16;;;;;;;3.88;2.00;;;24.70;53.30;;;;;;5053568;28;20492;-45
2021/07/30 04:35:41;;;;;;;3.80;2.20;;;24.70;53.30;;;;;;5054245;28;20079;-45
2021/07/30 04:38:07;;;;;;;3.97;2.60;;;24.80;53.30;;;;;;5053371;28;20024;-45
2021/07/30 04:40:33;;;;;;;3.13;2.55;;;24.70;53.30;;;;;;5052917;28;20051;-48
2021/07/30 04:42:59;;;;;;;3.90;2.38;;;24.70;53.30;;;;;;5053294;28;20060;-45
2021/07/30 04:45:26;;;;;;;2.75;2.08;;;24.70;53.30;;;;;;5054152;28;20390;-54
2021/07/30 04:47:52;;;;;;;3.40;2.33;;;24.70;53.40;;;;;;5052754;28;20036;-45
2021/07/30 04:50:18;;;;;;;2.22;2.03;;;24.70;53.30;;;;;;5053413;28;20067;-46
2021/07/30 04:52:44;;;;;;;3.00;1.85;;;24.70;53.30;;;;;;5053645;28;20075;-47
2021/07/30 04:55:10;;;;;;;3.88;2.10;;;24.70;53.30;;;;;;5053202;28;20072;-46
2021/07/30 04:57:36;;;;;;;3.08;2.40;;;24.70;53.30;;;;;;5054073;28;20059;-46
2021/07/30 05:00:02;;;;;;;3.38;2.22;;;24.70;53.40;;;;;;5054624;28;20037;-45
2021/07/30 05:02:28;;;;;;;3.95;2.22;;;24.70;53.30;;;;;;5052083;28;20082;-52
2021/07/30 05:04:54;;;;;;;2.80;1.73;;;24.70;53.40;;;;;;5052854;28;20439;-45
2021/07/30 05:07:24;;;;;;;3.28;2.33;;;24.70;53.40;;;;;;5050090;28;20021;-47
2021/07/30 05:09:50;;;;;;;2.35;2.00;;;24.70;53.40;;;;;;5054064;28;20029;-46
2021/07/30 05:12:16;;;;;;;4.47;2.55;;;24.70;53.30;;;;;;5053701;28;20025;-46
2021/07/30 05:14:42;;;;;;;3.55;2.05;;;24.80;53.40;;;;;;5051721;28;20480;-46
2021/07/30 05:17:07;;;;;;;5.55;2.08;;;24.70;53.40;;;;;;5052779;28;20029;-45
2021/07/30 05:19:33;;;;;;;2.92;2.30;;;24.70;53.50;;;;;;5049195;28;20057;-45
2021/07/30 05:21:59;;;;;;;3.97;2.33;;;24.70;53.40;;;;;;5051341;28;20039;-45
2021/07/30 05:24:25;;;;;;;5.75;2.20;;;24.70;53.60;;;;;;5052223;28;20044;-54
2021/07/30 05:26:50;;;;;;;4.13;2.20;;;24.70;53.70;;;;;;5053686;28;20025;-45
2021/07/30 05:29:16;;;;;;;2.97;2.22;;;24.80;53.70;;;;;;5053930;28;20029;-45
2021/07/30 05:31:41;;;;;;;3.05;2.13;;;24.80;53.80;;;;;;5056496;28;20078;-46
2021/07/30 05:34:07;;;;;;;2.97;2.22;;;24.90;54.00;;;;;;5072994;28;20061;-46
2021/07/30 05:36:33;;;;;;;4.32;2.25;;;24.90;54.20;;;;;;5072635;28;20039;-46
2021/07/30 05:38:58;;;;;;;3.17;2.13;;;24.90;54.10;;;;;;5073736;28;20378;-45
2021/07/30 05:41:24;;;;;;;3.70;2.38;;;24.90;54.70;;;;;;5064415;28;20031;-53
2021/07/30 05:43:50;;;;;;;6.50;2.70;;;24.90;54.80;;;;;;5052704;28;20111;-51
2021/07/30 05:46:19;;;;;;;3.35;2.58;;;24.90;54.60;;;;;;5045837;28;20492;-45
2021/07/30 05:48:46;;;;;;;5.35;3.22;;;24.80;54.20;;;;;;5067500;28;20288;-46
2021/07/30 05:51:13;;;;;;;4.28;3.00;;;24.80;53.60;;;;;;5073295;28;20021;-47
2021/07/30 05:53:41;;;;;;;5.93;3.40;;;24.80;53.20;;;;;;5072431;28;20036;-51
2021/07/30 05:56:07;;;;;;;6.60;3.63;;;24.70;52.80;;;;;;5073140;28;20032;-47
2021/07/30 05:58:33;;;;;;;4.90;3.58;;;24.70;53.40;;;;;;5072478;28;20031;-48
2021/07/30 06:00:59;;;;;;;4.47;3.47;;;24.70;53.00;;;;;;5067716;28;20048;-49
2021/07/30 06:03:25;;;;;;;6.20;4.05;;;24.70;53.10;;;;;;5059255;28;20021;-54
2021/07/30 06:05:51;;;;;;;7.25;3.90;;;24.60;53.10;;;;;;5051842;28;20040;-47
2021/07/30 06:08:16;;;;;;;5.85;3.88;;;24.60;53.50;;;;;;5053176;28;20378;-48
2021/07/30 06:10:42;;;;;;;5.85;3.45;;;24.60;53.50;;;;;;5052504;28;20031;-50
2021/07/30 06:13:08;;;;;;;7.75;3.45;;;24.60;53.40;;;;;;5052857;28;20029;-47
2021/07/30 06:15:34;;;;;;;8.45;3.72;;;24.60;53.50;;;;;;5064093;28;20486;-48
2021/07/30 06:18:04;;;;;;;7.07;3.92;;;24.60;53.50;;;;;;5072458;28;20075;-47
2021/07/30 06:20:30;;;;;;;6.90;4.82;;;24.60;53.50;;;;;;5071817;28;20026;-55
2021/07/30 06:22:57;;;;;;;9.75;3.83;;;24.60;53.60;;;;;;5072387;28;20090;-47
2021/07/30 06:25:22;;;;;;;7.20;4.43;;;24.60;53.50;;;;;;5072518;28;20032;-50
2021/07/30 06:27:48;;;;;;;6.65;3.47;;;24.60;53.30;;;;;;5071853;28;20047;-47
2021/07/30 06:30:14;;;;;;;9.07;4.22;;;24.50;53.50;;;;;;5043801;28;20045;-46
2021/07/30 06:32:40;;;;;;;6.95;3.33;;;24.50;53.30;;;;;;5053483;28;20028;-45
2021/07/30 06:35:07;;;;;;;4.72;3.20;;;24.50;53.20;;;;;;5052784;28;20033;-47
2021/07/30 06:37:33;;;;;;;5.65;3.25;;;24.50;53.30;;;;;;5058118;28;20020;-51
2021/07/30 06:39:59;;;;;;;4.72;3.20;;;24.50;53.20;;;;;;5070606;28;20063;-47
2021/07/30 06:42:25;;;;;;;4.07;3.40;;;24.50;53.40;;;;;;5056674;28;20037;-47
2021/07/30 06:44:51;;;;;;;9.65;3.70;;;24.50;53.50;;;;;;5057483;28;20031;-50
2021/07/30 06:47:19;;;;;;;5.90;3.85;;;24.50;53.40;;;;;;5071905;28;20032;-49
2021/07/30 06:49:44;;;;;;;7.88;3.17;;;24.50;53.30;;;;;;5070289;28;20355;-47
2021/07/30 06:52:10;;;;;;;6.57;3.38;;;24.50;53.20;;;;;;5062622;28;20082;-47
2021/07/30 06:54:37;;;;;;;5.93;3.33;;;24.50;53.00;;;;;;5053198;28;20078;-48
2021/07/30 06:57:03;;;;;;;4.15;2.80;;;24.50;53.10;;;;;;5033512;28;20037;-46
2021/07/30 06:59:29;;;;;;;3.83;2.97;;;24.50;53.10;;;;;;5056775;28;20048;-55
2021/07/30 07:01:55;;;;;;;6.18;2.92;;;24.50;53.00;;;;;;5054084;28;20474;-50
2021/07/30 07:04:21;;;;;;;7.25;3.03;;;24.50;53.00;;;;;;5052092;28;20032;-46
2021/07/30 07:06:49;;;;;;;6.13;2.53;;;24.40;53.00;;;;;;5056337;28;20425;-48
2021/07/30 07:09:15;;;;;;;3.97;2.65;;;24.50;53.10;;;;;;5060062;28;20029;-52
2021/07/30 07:11:41;;;;;;;6.45;3.20;;;24.50;53.10;;;;;;5052187;28;20032;-47
2021/07/30 07:14:07;;;;;;;4.50;3.15;;;24.50;53.10;;;;;;5064953;28;20086;-46
2021/07/30 07:16:33;;;;;;;4.40;2.58;;;24.50;53.20;;;;;;5070205;28;20082;-53
2021/07/30 07:18:58;;;;;;;9.65;3.13;;;24.50;53.10;;;;;;5066037;28;20031;-54
2021/07/30 07:21:24;;;;;;;4.68;2.70;;;24.50;53.20;;;;;;5050530;28;20520;-45
2021/07/30 07:23:50;;;;;;;4.47;2.88;;;24.50;53.20;;;;;;5052846;28;20044;-46
2021/07/30 07:26:19;;;;;;;5.50;3.10;;;24.50;53.40;;;;;;5070974;28;20093;-45
2021/07/30 07:28:45;;;;;;;4.75;3.15;;;24.50;53.50;;;;;;5070273;28;20488;-45
2021/07/30 07:31:11;;;;;;;5.45;3.33;;;24.50;53.50;;;;;;5071531;28;20032;-45
2021/07/30 07:33:37;;;;;;;4.63;2.85;;;24.50;53.60;;;;;;5051931;28;20035;-45
2021/07/30 07:36:04;;;;;;;4.60;2.65;;;24.40;53.70;;;;;;5051454;28;20037;-45
2021/07/30 07:38:30;;;;;;;6.88;3.17;;;24.50;53.70;;;;;;5051708;28;20025;-45
2021/07/30 07:40:56;;;;;;;5.00;2.70;;;24.50;53.60;;;;;;5050910;28;20034;-48
2021/07/30 07:43:21;;;;;;;4.80;2.72;;;24.50;53.20;;;;;;5051032;28;20025;-45
2021/07/30 07:45:47;;;;;;;4.35;2.78;;;24.50;53.30;;;;;;5053602;28;20029;-45
2021/07/30 07:48:13;;;;;;;4.43;2.63;;;24.40;53.30;;;;;;5071153;28;20025;-44
2021/07/30 07:50:39;;;;;;;5.57;2.67;;;24.40;53.50;;;;;;5069462;28;20033;-49
2021/07/30 07:53:15;;;;;;;8.30;3.20;;;24.50;53.60;;;;;;5056712;28;20029;-45
2021/07/30 07:55:42;;;;;;;5.38;3.03;;;24.50;53.70;;;;;;5050714;28;20040;-46
2021/07/30 07:58:08;;;;;;;3.55;2.53;;;24.60;53.70;;;;;;5050573;28;20036;-45
2021/07/30 08:00:34;;;;;;;11.00;3.28;;;24.50;53.80;;;;;;5057460;28;20064;-53
2021/07/30 08:03:00;;;;;;;4.20;3.00;;;24.50;53.90;;;;;;5058046;28;20064;-45
2021/07/30 08:05:25;;;;;;;5.35;2.90;;;24.50;54.20;;;;;;5071150;28;20043;-45
2021/07/30 08:07:51;;;;;;;6.10;3.05;;;24.50;54.30;;;;;;5070540;28;20017;-45
2021/07/30 08:10:17;;;;;;;5.30;3.33;;;24.60;54.40;;;;;;5055261;28;20044;-44
2021/07/30 08:12:42;;;;;;;5.45;3.00;;;24.60;54.40;;;;;;5062665;28;20074;-47
2021/07/30 08:15:09;;;;;;;9.85;2.90;;;24.60;54.50;;;;;;5071205;28;20082;-45
2021/07/30 08:17:35;;;;;;;5.43;2.95;;;24.60;54.40;;;;;;5054377;28;20108;-53
2021/07/30 08:20:01;;;;;;;5.13;3.50;;;24.60;54.40;;;;;;5060334;28;20046;-44
2021/07/30 08:22:27;;;;;;;4.68;2.88;;;24.60;54.20;;;;;;5070944;28;20029;-45
2021/07/30 08:24:53;;;;;;;4.30;3.00;;;24.60;54.10;;;;;;5070197;28;20485;-45
2021/07/30 08:27:18;;;;;;;4.32;3.50;;;24.70;53.90;;;;;;5071080;28;20031;-45
2021/07/30 08:29:44;;;;;;;5.82;3.13;;;24.60;53.90;;;;;;5065249;28;20028;-45
2021/07/30 08:32:10;;;;;;;8.20;3.13;;;24.60;53.90;;;;;;5069028;28;20028;-45
2021/07/30 08:34:40;;;;;;;7.32;3.13;;;24.70;54.10;;;;;;5074719;28;20039;-52
2021/07/30 08:37:07;;;;;;;6.45;3.50;;;24.70;54.30;;;;;;5074850;28;20028;-45
2021/07/30 08:39:33;;;;;;;5.72;3.33;;;24.60;55.10;;;;;;5074442;28;20389;-45
2021/07/30 08:42:01;;;;;;;5.10;3.42;;;24.60;55.00;;;;;;5073558;28;20024;-47
2021/07/30 08:44:27;;;;;;;5.28;2.90;;;24.60;55.80;;;;;;5068935;28;20033;-45
2021/07/30 08:46:54;;;;;;;6.45;2.88;;;24.50;55.30;;;;;;5053724;28;20119;-46
2021/07/30 08:49:19;;;;;;;4.95;3.33;;;24.50;55.10;;;;;;5068683;28;20060;-45
2021/07/30 08:51:49;;;;;;;5.68;3.13;;;24.50;54.70;;;;;;5072759;28;20067;-44
2021/07/30 08:54:15;;;;;;;5.72;3.35;;;24.50;55.20;;;;;;5074331;28;20036;-45
2021/07/30 08:56:41;;;;;;;5.22;3.28;;;24.60;54.70;;;;;;5057054;28;20021;-48
2021/07/30 08:59:10;;;;;;;5.50;3.55;;;24.50;53.70;;;;;;5062732;28;20500;-48
2021/07/30 09:01:36;;;;;;;13.02;3.70;;;24.40;53.50;;;;;;5054184;28;20532;-47
2021/07/30 09:04:02;;;;;;;5.38;3.70;;;24.40;53.20;;;;;;5053687;28;20025;-47
2021/07/30 09:06:27;;;;;;;5.25;3.00;;;24.50;53.50;;;;;;5054265;28;20517;-50
2021/07/30 09:09:02;;;;;;;5.72;3.35;;;24.50;53.60;;;;;;5053103;28;20044;-53
2021/07/30 09:11:39;;;;;;;3.88;3.17;;;24.50;53.70;;;;;;5054172;28;20025;-48
2021/07/30 09:14:09;;;;;;;4.18;3.20;;;24.50;53.80;;;;;;5054030;28;20029;-48
2021/07/30 09:16:54;;;;;;;7.20;3.40;;;24.60;53.70;;;;;;5054205;28;20036;-47
2021/07/30 09:19:24;;;;;;;3.70;2.97;;;24.60;53.20;;;;;;5054162;28;20021;-52
2021/07/30 09:22:09;;;;;;;6.95;3.22;;;24.60;53.10;;;;;;5055064;28;20047;-47
2021/07/30 09:24:38;;;;;;;4.18;3.08;;;24.60;53.00;;;;;;5053624;28;20378;-50
2021/07/30 09:27:04;;;;;;;4.70;3.70;;;24.60;53.70;;;;;;5065472;28;20028;-49
2021/07/30 09:29:32;;;;;;;5.95;3.03;;;24.60;52.60;;;;;;5072688;28;20033;-46
2021/07/30 09:32:02;;;;;;;3.90;3.15;;;24.70;52.80;;;;;;5054694;28;20035;-48
2021/07/30 09:34:48;;;;;;;6.68;3.13;;;24.60;52.50;;;;;;5073808;28;20052;-51
2021/07/30 09:37:17;;;;;;;8.63;2.92;;;24.70;52.60;;;;;;5072125;28;20486;-49
2021/07/30 09:39:46;;;;;;;6.70;4.05;;;24.70;52.60;;;;;;5069164;28;20111;-53
2021/07/30 09:42:20;;;;;;;7.63;3.40;;;24.70;52.70;;;;;;5053560;28;20478;-49
2021/07/30 09:45:13;;;;;;;3.92;3.03;;;24.70;52.80;;;;;;5052834;28;20036;-49
2021/07/30 09:47:50;;;;;;;5.97;3.20;;;24.70;52.80;;;;;;5053469;28;20029;-50
2021/07/30 09:50:16;;;;;;;5.63;3.40;;;24.80;52.90;;;;;;5055745;28;20478;-50
2021/07/30 09:52:42;;;;;;;4.78;3.20;;;24.80;53.10;;;;;;5057719;28;20035;-56
2021/07/30 09:55:12;;;;;;;4.70;3.50;;;24.80;53.10;;;;;;5053553;28;20028;-51
2021/07/30 09:57:40;;;;;;;4.80;3.60;;;24.80;53.00;;;;;;5052475;28;20398;-50
2021/07/30 10:00:14;;;;;;;6.10;3.22;;;24.80;53.00;;;;;;5058039;28;20049;-49
2021/07/30 10:02:46;;;;;;;4.93;3.08;;;24.80;53.00;;;;;;5052288;28;20041;-54
2021/07/30 10:05:16;;;;;;;3.35;2.90;;;24.80;53.00;;;;;;5052705;28;20041;-46
2021/07/30 10:07:42;;;;;;;4.80;3.30;;;24.80;53.00;;;;;;5052615;28;20029;-54
2021/07/30 10:10:13;;;;;;;3.45;2.83;;;24.80;53.10;;;;;;5052163;28;20025;-46
2021/07/30 10:12:46;;;;;;;3.97;3.30;;;24.90;53.30;;;;;;5040282;28;20034;-46
2021/07/30 10:15:12;;;;;;;6.22;3.45;;;24.90;53.50;;;;;;5033076;28;20033;-47
2021/07/30 10:17:46;;;;;;;3.97;3.40;;;25.00;54.30;;;;;;5033521;28;20087;-46
2021/07/30 10:20:14;;;;;;;5.00;3.67;;;25.00;53.90;;;;;;5054411;28;20040;-45
2021/07/30 10:22:40;;;;;;;5.53;3.63;;;25.00;54.70;;;;;;5065705;28;20037;-47
2021/07/30 10:25:08;;;;;;;3.75;2.78;;;25.00;54.50;;;;;;5071755;28;20507;-53
2021/07/30 10:27:40;;;;;;;5.32;3.25;;;25.00;54.70;;;;;;5068099;28;20025;-46
2021/07/30 10:30:08;;;;;;;4.03;3.00;;;25.00;55.00;;;;;;5066375;28;20169;-46
2021/07/30 10:32:43;;;;;;;4.00;2.92;;;25.00;55.40;;;;;;5072224;28;20048;-46
2021/07/30 10:35:09;;;;;;;5.55;3.20;;;25.00;55.50;;;;;;5072337;28;20124;-46
2021/07/30 10:37:37;;;;;;;5.07;3.03;;;25.00;55.90;;;;;;5072681;28;20024;-46
2021/07/30 10:40:23;;;;;;;3.88;2.85;;;25.00;55.80;;;;;;5053266;28;20064;-46
2021/07/30 10:43:13;;;;;;;5.10;3.13;;;25.00;55.70;;;;;;5064767;28;20050;-46
2021/07/30 10:45:39;;;;;;;3.78;3.05;;;25.00;55.80;;;;;;5068613;28;20040;-46
2021/07/30 10:48:11;;;;;;;4.00;3.22;;;25.00;55.80;;;;;;5053383;28;20139;-46
2021/07/30 10:50:44;;;;;;;3.58;2.70;;;25.00;55.80;;;;;;5072041;28;20082;-49
2021/07/30 10:53:34;;;;;;;5.30;3.63;;;24.90;55.70;;;;;;5063180;28;20044;-46
2021/07/30 10:56:02;;;;;;;5.35;3.58;;;24.90;55.70;;;;;;5066006;28;20170;-46
2021/07/30 10:58:40;;;;;;;3.85;3.45;;;25.00;55.80;;;;;;5072397;28;20058;-46
2021/07/30 11:01:15;;;;;;;5.00;2.92;;;25.00;55.70;;;;;;5072291;28;20102;-46
2021/07/30 11:06:21;;;;;;;4.22;3.40;;;25.00;55.80;;;;;;5032070;28;20052;-46
2021/07/30 11:09:02;;;;;;;4.53;3.77;;;25.00;55.70;;;;;;5048453;28;20025;-48
2021/07/30 11:11:47;;;;;;;3.40;3.10;;;25.00;55.70;;;;;;5053555;28;20021;-47
2021/07/30 11:14:18;;;;;;;4.50;3.50;;;25.00;55.80;;;;;;5051729;28;20029;-46
2021/07/30 11:16:59;;;;;;;4.07;3.47;;;25.00;55.80;;;;;;5054199;28;20155;-54
2021/07/30 11:19:30;;;;;;;4.63;3.35;;;25.00;55.70;;;;;;5071613;28;20041;-46
2021/07/30 11:21:58;;;;;;;4.53;3.30;;;25.00;55.80;;;;;;5070516;28;20035;-46
2021/07/30 11:24:24;;;;;;;3.83;3.22;;;25.00;55.80;;;;;;5071869;28;20044;-46
2021/07/30 11:26:50;;;;;;;3.40;3.10;;;25.00;55.80;;;;;;5070909;28;20029;-47
2021/07/30 11:29:20;;;;;;;3.60;3.22;;;25.00;55.80;;;;;;5071327;28;20462;-47
2021/07/30 11:32:01;;;;;;;4.25;3.22;;;24.90;55.80;;;;;;5072138;28;20181;-53
2021/07/30 11:34:32;;;;;;;4.30;3.15;;;25.00;55.80;;;;;;5071841;28;20028;-46
2021/07/30 11:36:59;;;;;;;5.93;3.90;;;25.00;55.90;;;;;;5059465;28;20029;-47
2021/07/30 11:39:38;;;;;;;4.50;3.40;;;24.90;55.80;;;;;;5050781;28;20848;-53
2021/07/30 11:42:04;;;;;;;4.43;3.45;;;25.00;55.80;;;;;;5037862;28;20032;-46
2021/07/30 11:44:44;;;;;;;4.25;3.30;;;25.00;55.90;;;;;;5051105;28;20033;-46
2021/07/30 11:47:10;;;;;;;4.03;3.40;;;25.00;55.90;;;;;;5048737;28;20072;-48
2021/07/30 11:49:38;;;;;;;3.50;3.20;;;25.00;55.80;;;;;;5063952;28;20059;-51
2021/07/30 11:52:06;;;;;;;5.63;3.63;;;25.00;55.90;;;;;;5055368;28;20028;-48
2021/07/30 11:54:32;;;;;;;4.93;3.75;;;25.00;55.90;;;;;;5070668;28;20093;-49
2021/07/30 11:56:58;;;;;;;3.53;3.15;;;25.00;56.00;;;;;;5070707;28;20424;-46
2021/07/30 11:59:25;;;;;;;4.93;3.53;;;25.00;56.00;;;;;;5070348;28;20128;-46
2021/07/30 12:02:05;;;;;;;3.67;3.08;;;25.00;55.90;;;;;;5067606;28;20071;-46
2021/07/30 12:04:32;;;;;;;4.18;3.28;;;25.00;55.90;;;;;;5061708;28;20044;-46
2021/07/30 12:07:06;;;;;;;5.38;3.65;;;25.00;55.90;;;;;;5069243;28;20386;-46
2021/07/30 12:09:33;;;;;;;5.68;3.17;;;25.00;56.00;;;;;;5055271;28;20020;-46
2021/07/30 12:12:01;;;;;;;4.82;2.88;;;25.00;55.90;;;;;;5074085;28;20377;-46
2021/07/30 12:14:29;;;;;;;4.07;3.63;;;25.00;55.90;;;;;;5075212;28;20029;-48
2021/07/30 12:16:57;;;;;;;4.07;3.45;;;25.00;55.80;;;;;;5074903;28;20032;-46
2021/07/30 12:19:34;;;;;;;4.63;3.22;;;25.00;55.90;;;;;;5061215;28;20036;-46
2021/07/30 12:22:05;;;;;;;5.35;3.40;;;25.00;55.80;;;;;;5054220;28;20024;-46
2021/07/30 12:24:32;;;;;;;4.13;3.47;;;25.00;55.90;;;;;;5055304;28;20040;-46
2021/07/30 12:27:14;;;;;;;4.30;3.30;;;25.00;55.80;;;;;;5054206;28;20036;-46
2021/07/30 12:29:45;;;;;;;4.18;3.60;;;25.00;55.80;;;;;;5063350;28;20100;-46
2021/07/30 12:32:13;;;;;;;4.22;3.42;;;25.00;55.80;;;;;;5068204;28;20037;-46
2021/07/30 12:34:39;;;;;;;5.15;3.17;;;25.00;56.00;;;;;;5053203;28;20142;-54
2021/07/30 12:37:11;;;;;;;4.03;3.03;;;25.00;55.90;;;;;;5054463;28;20464;-46
2021/07/30 12:39:44;;;;;;;;;;;25.00;55.90;;;;;;5055384;28;20024;-46
2021/07/30 12:42:19;;;;;;;5.38;3.67;;;25.00;56.00;;;;;;5053796;28;20506;-46
2021/07/30 12:45:06;;;;;;;5.10;3.53;;;25.00;56.00;;;;;;5054885;28;20140;-46
2021/07/30 12:47:39;;;;;;;4.45;3.22;;;25.00;56.00;;;;;;5071052;28;20488;-46
2021/07/30 12:50:28;;;;;;;5.35;4.00;;;25.00;56.00;;;;;;5054074;28;20088;-46
2021/07/30 12:53:03;;;;;;;3.70;3.10;;;25.00;56.00;;;;;;5057917;28;20086;-46